Time;durP1;ratioP1;P1;durP2;ratioP2;P2;SDS_P1;SDS_P2;PMS_P1;PMS_P2;Temp;Humidity;BMP_temperature;BMP_pressure;BME280_temperature;BME280_humidity;BME280_pressure;Samples;Min_cycle;Max_cycle;Signal;HPM_P1;HPM_P2
2022/05/22 00:01:13;;;;;;;3.13;1.35;;;;;;;16.81;38.48;97947.22;10096430;29;20041;-76
2022/05/22 00:06:34;;;;;;;3.72;0.85;;;;;;;16.67;38.67;97935.25;10121815;29;20559;-76
2022/05/22 00:11:55;;;;;;;3.70;1.27;;;;;;;16.54;38.89;97942.41;10107952;29;20486;-76
2022/05/22 00:17:16;;;;;;;3.05;0.90;;;;;;;16.48;39.11;97941.38;10122035;29;20044;-76
2022/05/22 00:22:37;;;;;;;5.15;1.23;;;;;;;16.45;39.30;97932.13;10108889;29;20044;-76
2022/05/22 00:27:58;;;;;;;2.35;0.90;;;;;;;16.43;39.60;97929.22;10121719;29;20565;-76
2022/05/22 00:33:19;;;;;;;5.63;1.25;;;;;;;16.36;39.71;97929.53;10108824;29;20051;-75
2022/05/22 00:38:40;;;;;;;5.13;1.10;;;;;;;16.28;39.98;97924.25;10108515;29;20040;-76
2022/05/22 00:44:02;;;;;;;5.88;1.20;;;;;;;16.12;40.05;97918.56;10108566;29;20397;-77
2022/05/22 00:49:30;;;;;;;3.80;1.10;;;;;;;16.01;41.04;97920.13;10108542;29;20075;-76
2022/05/22 00:55:04;;;;;;;4.45;1.13;;;;;;;15.98;41.32;97915.06;10082658;29;20040;-76
2022/05/22 01:00:31;;;;;;;2.65;1.08;;;;;;;15.96;40.95;97923.41;10108214;29;20049;-76
2022/05/22 01:05:52;;;;;;;2.58;1.25;;;;;;;15.98;41.40;97923.50;10119096;29;20052;-76
2022/05/22 01:11:25;;;;;;;3.65;1.20;;;;;;;15.99;42.02;97922.88;10121061;29;20052;-76
2022/05/22 01:16:47;;;;;;;6.15;1.20;;;;;;;15.99;41.69;97917.22;10108136;29;20387;-78
2022/05/22 01:22:12;;;;;;;3.58;1.23;;;;;;;16.04;41.66;97918.19;10136367;29;20048;-76
2022/05/22 01:27:36;;;;;;;3.95;1.17;;;;;;;16.03;41.82;97919.53;10128375;29;20108;-75
2022/05/22 01:33:15;;;;;;;2.78;1.13;;;;;;;16.09;42.12;97914.19;10119493;29;20497;-77
2022/05/22 01:38:37;;;;;;;3.15;1.17;;;;;;;16.07;42.00;97905.66;10127481;29;20052;-78
2022/05/22 01:43:58;;;;;;;3.85;1.42;;;;;;;16.12;42.36;97912.94;10127341;29;20049;-76
2022/05/22 01:49:19;;;;;;;5.05;1.40;;;;;;;16.13;42.37;97908.75;10127513;29;20045;-75
2022/05/22 01:54:40;;;;;;;3.67;1.20;;;;;;;16.13;42.53;97908.03;10126924;29;20080;-77
2022/05/22 02:00:03;;;;;;;6.53;1.55;;;;;;;16.14;42.42;97903.84;10139759;29;20051;-76
2022/05/22 02:05:34;;;;;;;3.67;1.30;;;;;;;16.06;42.73;97901.38;10139264;29;20492;-77
2022/05/22 02:10:59;;;;;;;3.63;1.38;;;;;;;16.03;42.91;97899.81;10126647;29;20044;-76
2022/05/22 02:16:21;;;;;;;3.38;1.10;;;;;;;16.00;43.04;97901.78;10113189;29;20087;-76
2022/05/22 02:21:45;;;;;;;4.35;1.70;;;;;;;15.96;43.17;97907.25;10126029;29;20487;-77
2022/05/22 02:27:07;;;;;;;4.57;1.50;;;;;;;15.92;43.37;97906.28;10126324;29;20048;-76
2022/05/22 02:32:28;;;;;;;5.72;1.27;;;;;;;15.82;43.63;97909.34;10124866;29;20399;-76
2022/05/22 02:37:51;;;;;;;7.30;1.90;;;;;;;15.75;43.74;97913.22;10125103;29;20049;-78
2022/05/22 02:43:25;;;;;;;4.97;1.48;;;;;;;15.65;43.98;97912.72;10126740;29;20045;-77
2022/05/22 02:48:50;;;;;;;4.15;1.48;;;;;;;15.51;44.30;97921.13;10125842;29;20120;-76
2022/05/22 02:54:11;;;;;;;3.20;1.48;;;;;;;15.43;44.51;97921.44;10137971;29;20049;-76
2022/05/22 02:59:48;;;;;;;4.10;1.55;;;;;;;15.38;44.75;97919.06;10126359;29;20045;-77
2022/05/22 03:05:21;;;;;;;3.45;1.55;;;;;;;15.37;45.13;97923.22;10126086;29;20061;-76
2022/05/22 03:10:42;;;;;;;4.28;1.50;;;;;;;15.36;45.09;97910.53;10137138;29;20056;-77
2022/05/22 03:16:04;;;;;;;5.88;1.98;;;;;;;15.28;45.42;97910.84;10124718;29;20040;-78
2022/05/22 03:21:40;;;;;;;3.40;1.40;;;;;;;15.21;45.63;97916.75;10125316;29;20052;-78
2022/05/22 03:27:03;;;;;;;4.32;1.67;;;;;;;15.25;45.78;97908.53;10123355;29;20055;-77
2022/05/22 03:32:25;;;;;;;3.47;1.50;;;;;;;15.17;45.77;97901.16;10122266;29;20051;-78
2022/05/22 03:37:51;;;;;;;4.13;1.52;;;;;;;15.14;45.83;97901.66;10122858;29;20048;-72
2022/05/22 03:43:15;;;;;;;5.50;2.20;;;;;;;15.14;45.95;97896.75;10121246;29;20048;-74
2022/05/22 03:48:37;;;;;;;6.70;3.35;;;;;;;15.16;46.32;97904.59;10096391;29;20060;-74
2022/05/22 03:53:59;;;;;;;4.43;3.13;;;;;;;15.18;46.15;97896.97;10133050;29;20510;-75
2022/05/22 03:59:26;;;;;;;3.97;2.65;;;;;;;15.22;46.15;97895.72;10107331;29;20044;-74
2022/05/22 04:04:48;;;;;;;3.17;2.03;;;;;;;15.23;46.00;97897.91;10080372;29;20136;-74
2022/05/22 04:10:17;;;;;;;6.28;2.15;;;;;;;15.36;46.35;97896.47;10095461;29;20056;-74
2022/05/22 04:15:38;;;;;;;3.95;1.90;;;;;;;15.50;46.19;97902.06;10096047;29;20048;-75
2022/05/22 04:21:00;;;;;;;4.65;1.60;;;;;;;15.62;46.04;97894.25;10096012;29;20101;-74
2022/05/22 04:26:50;;;;;;;4.85;1.77;;;;;;;15.79;45.93;97888.09;10101928;29;20060;-74
2022/05/22 04:32:10;;;;;;;5.40;1.75;;;;;;;15.96;45.62;97869.91;10096532;29;20048;-75
2022/05/22 04:37:36;;;;;;;4.10;1.58;;;;;;;16.18;45.69;97865.34;10093824;29;20082;-74
2022/05/22 04:42:58;;;;;;;6.22;2.00;;;;;;;16.43;45.22;97877.78;10095314;29;20112;-74
2022/05/22 04:48:19;;;;;;;5.18;1.80;;;;;;;16.66;45.36;97876.69;10095813;29;20049;-74
2022/05/22 04:53:50;;;;;;;7.00;2.08;;;;;;;16.93;44.97;97885.00;10084073;29;20053;-76
2022/05/22 04:59:14;;;;;;;4.95;2.00;;;;;;;17.16;44.65;97892.38;10088528;29;20381;-76
2022/05/22 05:04:35;;;;;;;6.97;1.92;;;;;;;17.41;44.22;97899.81;10090653;29;20065;-74
2022/05/22 05:10:17;;;;;;;5.60;2.13;;;;;;;17.73;43.84;97892.00;10113212;29;20056;-75
2022/05/22 05:16:02;;;;;;;6.10;2.35;;;;;;;18.15;43.43;97897.97;10102538;29;20060;-75
2022/05/22 05:21:29;;;;;;;6.95;1.92;;;;;;;18.67;42.88;97904.25;10102461;29;20072;-77
2022/05/22 05:26:55;;;;;;;6.85;1.80;;;;;;;19.13;42.29;97896.78;10102519;29;20064;-77
2022/05/22 05:32:45;;;;;;;5.32;1.85;;;;;;;19.54;41.45;97898.94;10102320;29;20085;-79
2022/05/22 05:38:26;;;;;;;5.07;1.60;;;;;;;20.20;40.97;97890.53;10112653;29;20056;-80
2022/05/22 05:44:18;;;;;;;7.13;1.70;;;;;;;21.13;39.57;97892.66;10101835;29;20045;-79
2022/05/22 05:49:46;;;;;;;3.72;1.60;;;;;;;24.73;35.97;97896.84;10101553;29;20140;-75
2022/05/22 05:55:18;;;;;;;4.78;1.50;;;;;;;32.47;28.60;97902.44;10099822;29;20052;-85
2022/05/22 06:01:17;;;;;;;4.85;1.40;;;;;;;38.44;22.14;97909.06;10100491;29;20077;-83
2022/05/22 06:06:39;;;;;;;5.28;1.48;;;;;;;41.26;18.78;97911.09;10087932;29;20053;-83
2022/05/22 06:12:00;;;;;;;3.63;1.20;;;;;;;42.88;15.48;97915.88;10086619;29;20097;-85
2022/05/22 06:17:34;;;;;;;3.58;1.15;;;;;;;44.34;13.77;97905.94;10087249;29;20488;-85
2022/05/22 06:22:57;;;;;;;6.30;1.35;;;;;;;46.00;12.22;97907.63;10074932;29;20053;-85
2022/05/22 06:28:41;;;;;;;3.15;1.35;;;;;;;47.17;10.53;97908.38;10068073;29;20061;-85
2022/05/22 06:34:05;;;;;;;4.28;1.00;;;;;;;47.99;9.27;97914.44;10087824;29;20049;-85
2022/05/22 06:39:51;;;;;;;4.78;1.30;;;;;;;48.86;8.41;97906.41;10089256;29;20533;-85
2022/05/22 06:45:14;;;;;;;5.18;1.25;;;;;;;50.10;7.79;97908.06;10074270;29;20056;-86
2022/05/22 06:51:00;;;;;;;3.70;0.98;;;;;;;51.19;6.70;97895.72;10063113;29;20514;-78
2022/05/22 06:56:21;;;;;;;3.13;0.90;;;;;;;47.97;6.96;97906.44;10073282;29;20097;-82
2022/05/22 07:02:04;;;;;;;3.42;0.90;;;;;;;48.89;6.92;97890.56;10086811;29;20053;-80
2022/05/22 07:07:51;;;;;;;2.50;0.70;;;;;;;44.21;7.94;97881.81;10076129;29;20136;-86
2022/05/22 07:13:35;;;;;;;4.10;1.05;;;;;;;46.09;8.48;97873.03;10069887;29;20061;-81
2022/05/22 07:19:47;;;;;;;2.88;0.80;;;;;;;51.08;6.39;97880.44;10018517;29;20064;-80
2022/05/22 07:25:31;;;;;;;3.58;0.75;;;;;;;50.95;5.03;97863.06;10082035;29;20059;-81
2022/05/22 07:30:52;;;;;;;4.35;0.90;;;;;;;42.20;8.38;97857.53;10084847;29;20104;-84
2022/05/22 07:36:32;;;;;;;4.00;0.85;;;;;;;41.22;8.64;97847.63;10097938;29;20056;-80
2022/05/22 07:42:34;;;;;;;4.93;1.00;;;;;;;36.96;10.80;97839.81;10025478;29;20058;-79
2022/05/22 07:48:15;;;;;;;4.55;0.90;;;;;;;44.73;9.47;97833.41;10076009;29;20061;-80
2022/05/22 07:54:08;;;;;;;3.63;1.00;;;;;;;42.86;8.25;97828.66;10064116;29;20567;-79
2022/05/22 07:59:48;;;;;;;4.35;1.00;;;;;;;36.48;10.95;97831.34;10086415;29;20041;-78
2022/05/22 08:05:32;;;;;;;3.72;0.85;;;;;;;35.74;11.64;97821.41;10092380;29;20064;-79
2022/05/22 08:10:58;;;;;;;3.22;0.85;;;;;;;37.70;12.64;97815.16;10096640;29;20124;-81
2022/05/22 08:16:28;;;;;;;3.08;0.90;;;;;;;39.46;10.32;97808.97;10096283;29;20502;-80
2022/05/22 08:21:59;;;;;;;5.38;1.20;;;;;;;36.58;11.95;97790.28;10084652;29;20056;-83
2022/05/22 08:27:40;;;;;;;5.07;1.08;;;;;;;42.64;10.62;97788.22;10085908;29;20128;-80
2022/05/22 08:33:02;;;;;;;4.38;0.85;;;;;;;45.10;8.86;97802.09;10086565;29;20132;-81
2022/05/22 08:38:23;;;;;;;2.90;0.80;;;;;;;47.07;7.78;97800.59;10140615;29;20495;-80
2022/05/22 08:44:40;;;;;;;3.85;0.90;;;;;;;52.16;5.11;97805.09;10088676;29;20053;-79
2022/05/22 08:50:55;;;;;;;5.15;1.20;;;;;;;43.50;6.72;97807.78;10100598;29;20125;-79
2022/05/22 09:02:25;;;;;;;3.33;1.10;;;;;;;42.35;7.40;97780.44;10092073;29;20068;-79
2022/05/22 09:08:26;;;;;;;5.07;1.23;;;;;;;46.59;7.02;97775.59;10077273;29;20536;-79
2022/05/22 09:14:30;;;;;;;3.75;0.98;;;;;;;45.80;6.49;97788.25;10076811;29;20089;-78
2022/05/22 09:20:17;;;;;;;3.13;0.80;;;;;;;49.68;5.50;97790.97;10090991;29;20140;-86
2022/05/22 09:25:56;;;;;;;6.00;1.70;;;;;;;42.12;7.20;97801.59;10076287;29;20049;-87
2022/05/22 09:31:23;;;;;;;3.72;0.90;;;;;;;44.40;8.32;97799.63;10076422;29;20045;-86
2022/05/22 09:37:21;;;;;;;3.15;0.70;;;;;;;44.41;7.56;97797.38;10088842;29;20060;-86
2022/05/22 09:43:01;;;;;;;2.97;0.90;;;;;;;43.26;7.11;97795.34;10088576;29;20396;-86
2022/05/22 09:48:39;;;;;;;4.65;0.80;;;;;;;40.17;9.17;97780.72;10088465;29;20044;-84
2022/05/22 09:54:07;;;;;;;;;;;;;;;37.19;10.47;97773.47;10063333;29;20396;-87
2022/05/22 09:59:57;;;;;;;2.90;0.70;;;;;;;45.43;7.76;97758.50;10067259;29;19931;-87
2022/05/22 10:05:18;;;;;;;7.05;1.00;;;;;;;41.17;8.07;97765.16;10081172;29;20096;-87
2022/05/22 10:11:02;;;;;;;5.45;1.05;;;;;;;38.70;9.98;97769.47;10100797;29;20060;-89
2022/05/22 10:16:32;;;;;;;2.72;0.80;;;;;;;40.98;8.60;97758.22;10087688;29;20052;-88
2022/05/22 10:22:05;;;;;;;5.50;1.00;;;;;;;38.25;9.68;97772.13;10100234;29;20041;-86
2022/05/22 10:27:33;;;;;;;2.55;0.70;;;;;;;39.12;11.20;97761.00;10101057;29;20053;-86
2022/05/22 10:33:00;;;;;;;;;;;;;;;43.80;7.42;97758.06;10087502;29;20057;-86
2022/05/22 10:38:28;;;;;;;4.85;1.00;;;;;;;38.08;9.35;97757.53;10099684;29;19924;-85
2022/05/22 10:43:50;;;;;;;3.37;0.60;;;;;;;39.52;10.45;97745.94;10086953;29;20049;-87
2022/05/22 10:49:11;;;;;;;2.45;0.93;;;;;;;43.06;7.84;97743.78;10086676;29;20045;-86
2022/05/22 10:54:56;;;;;;;2.25;0.55;;;;;;;38.56;9.18;97747.47;10072455;29;20045;-81
2022/05/22 11:00:18;;;;;;;3.33;0.70;;;;;;;40.34;8.02;97725.72;10101377;29;20057;-86
2022/05/22 11:05:39;;;;;;;2.30;0.70;;;;;;;38.29;9.15;97725.31;10083240;29;20068;-82
2022/05/22 11:11:18;;;;;;;5.05;1.15;;;;;;;36.89;10.70;97702.66;10085979;29;20527;-83
2022/05/22 11:16:40;;;;;;;3.35;0.88;;;;;;;34.81;11.75;97711.81;10085828;29;20053;-84
2022/05/22 11:22:23;;;;;;;2.92;0.70;;;;;;;33.06;13.30;97706.94;10098441;29;20123;-87
2022/05/22 11:28:19;;;;;;;3.97;0.77;;;;;;;31.35;14.82;97699.31;10097747;29;20413;-86
2022/05/22 11:34:17;;;;;;;4.00;0.60;;;;;;;30.26;16.05;97693.56;10076088;29;20408;-83
2022/05/22 11:39:44;;;;;;;1.42;0.40;;;;;;;30.07;15.90;97701.69;10097375;29;20041;-87
2022/05/22 11:45:13;;;;;;;4.43;0.65;;;;;;;30.70;15.93;97682.97;10097089;29;20037;-84
2022/05/22 11:50:39;;;;;;;4.28;0.90;;;;;;;30.89;16.04;97675.50;10097037;29;20049;-87
2022/05/22 11:56:10;;;;;;;3.30;0.60;;;;;;;31.17;15.85;97667.88;10083998;29;20076;-83
2022/05/22 12:01:37;;;;;;;3.40;0.95;;;;;;;30.68;16.17;97654.88;10096621;29;20124;-81
2022/05/22 12:07:16;;;;;;;1.73;0.40;;;;;;;31.01;16.63;97657.31;10070716;29;20065;-81
2022/05/22 12:12:43;;;;;;;4.28;0.70;;;;;;;31.26;16.10;97651.88;10097737;29;20452;-82
2022/05/22 12:18:45;;;;;;;2.20;0.50;;;;;;;30.70;16.58;97648.41;10083429;29;20506;-82
2022/05/22 12:24:31;;;;;;;4.03;0.85;;;;;;;30.45;16.55;97642.94;10071095;29;20060;-79
2022/05/22 12:30:11;;;;;;;4.50;0.60;;;;;;;30.35;16.27;97628.69;10080985;29;20075;-81
2022/05/22 12:35:32;;;;;;;3.53;0.90;;;;;;;29.99;16.86;97629.81;10070371;29;20045;-81
2022/05/22 12:41:31;;;;;;;3.80;0.80;;;;;;;30.27;17.50;97628.78;10070076;29;20432;-81
2022/05/22 12:46:52;;;;;;;3.75;0.60;;;;;;;29.82;17.15;97629.28;10070207;29;20052;-77
2022/05/22 12:52:13;;;;;;;;;;;;;;;29.61;17.76;97634.50;10083799;29;20124;-77
2022/05/22 12:57:34;;;;;;;3.50;0.60;;;;;;;29.23;17.39;97626.94;10082661;29;20002;-78
2022/05/22 13:03:18;;;;;;;3.92;0.88;;;;;;;28.74;18.40;97615.78;10082914;29;20140;-79
2022/05/22 13:08:44;;;;;;;2.85;0.60;;;;;;;29.19;18.22;97606.84;10069803;29;20052;-79
2022/05/22 13:14:04;;;;;;;3.50;1.20;;;;;;;29.27;18.26;97615.41;10069623;29;20551;-79
2022/05/22 13:19:27;;;;;;;3.50;0.80;;;;;;;29.26;18.03;97607.53;10073396;29;20049;-77
2022/05/22 13:24:51;;;;;;;3.80;0.70;;;;;;;28.46;18.44;97602.31;10089436;29;20053;-82
2022/05/22 13:30:26;;;;;;;3.45;0.70;;;;;;;28.12;18.98;97597.44;10076414;29;20053;-84
2022/05/22 13:35:59;;;;;;;2.88;0.47;;;;;;;28.27;18.73;97589.47;10076197;29;20063;-84
2022/05/22 13:41:35;;;;;;;2.35;0.50;;;;;;;28.28;18.60;97590.19;10088840;29;20045;-84
2022/05/22 13:47:15;;;;;;;2.63;0.70;;;;;;;28.29;18.35;97580.91;10088695;29;20048;-84
2022/05/22 13:52:41;;;;;;;6.38;0.90;;;;;;;28.20;18.45;97579.47;10088729;29;20502;-82
2022/05/22 13:58:04;;;;;;;3.05;0.73;;;;;;;27.95;18.97;97590.34;10061242;29;20079;-77
2022/05/22 14:03:37;;;;;;;2.92;0.55;;;;;;;27.55;19.37;97566.06;10087919;29;20064;-76
2022/05/22 14:08:59;;;;;;;2.15;0.40;;;;;;;27.30;19.23;97573.25;10062195;29;20056;-78
2022/05/22 14:14:26;;;;;;;3.47;0.40;;;;;;;26.92;19.26;97566.09;10074957;29;20081;-78
2022/05/22 14:19:54;;;;;;;3.78;0.40;;;;;;;26.65;19.87;97558.94;10074661;29;20053;-78
2022/05/22 14:25:22;;;;;;;3.92;0.45;;;;;;;26.09;20.21;97555.22;10062360;29;20633;-78
2022/05/22 14:30:44;;;;;;;4.18;0.70;;;;;;;26.24;20.39;97553.09;10073092;29;20051;-78
2022/05/22 14:36:09;;;;;;;1.38;0.32;;;;;;;26.29;20.55;97545.97;10087004;29;20041;-80
2022/05/22 14:41:32;;;;;;;3.50;0.73;;;;;;;26.06;20.48;97541.63;10073382;29;20132;-77
2022/05/22 14:46:57;;;;;;;4.97;0.57;;;;;;;25.81;20.44;97535.09;10074283;29;20048;-77
2022/05/22 14:52:21;;;;;;;;;;;;;;;25.67;21.02;97536.47;10087119;29;20052;-77
2022/05/22 14:57:45;;;;;;;4.53;0.60;;;;;;;25.42;21.02;97531.31;10100025;29;20078;-77
2022/05/22 15:03:30;;;;;;;3.35;0.38;;;;;;;25.01;21.44;97531.75;10075951;29;20111;-76
2022/05/22 15:08:54;;;;;;;4.22;0.45;;;;;;;25.09;21.43;97528.25;10072628;29;20052;-78
2022/05/22 15:14:18;;;;;;;2.97;0.40;;;;;;;25.27;21.11;97522.66;10072710;29;20488;-80
2022/05/22 15:19:49;;;;;;;2.85;0.40;;;;;;;25.36;21.31;97520.56;10059495;29;20514;-77
2022/05/22 15:25:34;;;;;;;2.58;0.52;;;;;;;25.06;21.12;97521.09;10073395;29;20049;-82
2022/05/22 15:31:08;;;;;;;1.80;0.40;;;;;;;24.89;21.55;97508.81;10072466;29;20075;-76
2022/05/22 15:36:42;;;;;;;1.65;0.30;;;;;;;24.95;21.46;97516.72;10071798;29;20567;-79
2022/05/22 15:42:14;;;;;;;3.15;0.40;;;;;;;24.66;21.38;97510.78;10085618;29;20044;-77
2022/05/22 15:47:35;;;;;;;2.88;0.32;;;;;;;24.53;21.93;97492.13;10058788;29;20123;-76
2022/05/22 15:52:57;;;;;;;2.25;0.60;;;;;;;24.43;21.75;97495.63;10071330;29;20551;-76
2022/05/22 15:58:18;;;;;;;2.07;0.40;;;;;;;24.20;22.02;97491.06;10071301;29;20474;-76
2022/05/22 16:03:40;;;;;;;1.65;0.40;;;;;;;24.15;22.40;97489.63;10058135;29;20563;-79
2022/05/22 16:09:01;;;;;;;4.15;0.77;;;;;;;23.74;22.68;97489.19;10083769;29;20101;-79
2022/05/22 16:14:22;;;;;;;4.20;1.38;;;;;;;23.27;23.71;97491.41;10070677;29;20045;-83
2022/05/22 16:19:49;;;;;;;2.83;0.50;;;;;;;23.18;24.02;97494.84;10070385;29;20396;-82
2022/05/22 16:25:12;;;;;;;2.83;0.30;;;;;;;23.12;24.50;97499.03;10070486;29;20045;-82
2022/05/22 16:30:34;;;;;;;3.27;0.77;;;;;;;23.11;24.43;97499.72;10070452;29;20056;-82
2022/05/22 16:35:55;;;;;;;;;;;;;;;23.02;24.99;97496.03;10072406;29;20049;-77
2022/05/22 16:41:17;;;;;;;3.83;0.52;;;;;;;23.02;25.08;97503.88;10108818;29;19923;-85
2022/05/22 16:47:01;;;;;;;2.97;0.80;;;;;;;22.85;25.33;97505.75;10109583;29;20384;-85
2022/05/22 16:58:07;;;;;;;4.07;0.80;;;;;;;22.67;25.65;97514.66;10115661;29;20044;-79
2022/05/22 17:03:30;;;;;;;1.75;0.40;;;;;;;22.48;25.85;97519.34;10101501;29;20419;-77
2022/05/22 17:08:54;;;;;;;2.33;0.50;;;;;;;22.35;26.58;97517.69;10103035;29;20045;-78
2022/05/22 17:14:27;;;;;;;3.08;0.70;;;;;;;22.12;26.76;97522.25;10115571;29;20432;-79
2022/05/22 17:19:48;;;;;;;5.18;0.80;;;;;;;21.86;27.00;97522.44;10113917;29;20420;-79
2022/05/22 17:25:12;;;;;;;2.40;0.60;;;;;;;21.82;27.24;97519.53;10102283;29;20045;-79
2022/05/22 17:30:33;;;;;;;2.80;0.73;;;;;;;21.72;27.26;97522.19;10101896;29;20052;-82
2022/05/22 17:35:54;;;;;;;3.40;0.50;;;;;;;21.59;27.78;97526.88;10101916;29;20048;-82
2022/05/22 17:41:17;;;;;;;4.35;0.55;;;;;;;21.60;27.66;97528.31;10114626;29;20060;-78
2022/05/22 17:46:38;;;;;;;3.15;0.43;;;;;;;21.45;28.14;97537.22;10115026;29;20048;-83
2022/05/22 17:51:58;;;;;;;3.65;0.50;;;;;;;21.30;28.10;97528.38;10114221;29;20053;-85
2022/05/22 17:57:20;;;;;;;3.17;0.82;;;;;;;21.31;28.98;97535.50;10088638;29;20044;-85
2022/05/22 18:02:41;;;;;;;2.35;0.55;;;;;;;21.11;28.60;97535.03;10100831;29;20600;-81
2022/05/22 18:08:04;;;;;;;6.00;2.15;;;;;;;20.95;28.86;97537.50;10100802;29;20403;-81
2022/05/22 18:19:05;;;;;;;3.17;1.20;;;;;;;20.40;29.48;97531.16;10128697;29;20358;-77
2022/05/22 18:30:13;;;;;;;5.53;1.15;;;;;;;20.06;30.21;97542.31;10116841;29;20495;-74
2022/05/22 18:35:34;;;;;;;2.13;0.60;;;;;;;19.90;30.16;97536.22;10109609;29;20476;-74
2022/05/22 18:40:54;;;;;;;4.00;0.93;;;;;;;19.79;30.42;97537.31;10093234;29;20125;-74
2022/05/22 18:46:17;;;;;;;4.03;0.40;;;;;;;19.61;30.65;97541.06;10108800;29;20052;-75
2022/05/22 18:51:41;;;;;;;1.70;0.30;;;;;;;19.46;31.37;97539.19;10108505;29;20483;-73
2022/05/22 18:57:02;;;;;;;3.42;0.52;;;;;;;19.35;31.22;97537.44;10111896;29;20407;-74
2022/05/22 19:02:23;;;;;;;2.05;0.43;;;;;;;19.28;31.44;97530.16;10124291;29;20063;-74
2022/05/22 19:07:45;;;;;;;4.75;0.77;;;;;;;19.16;32.02;97542.53;10116636;29;20049;-76
2022/05/22 19:13:05;;;;;;;4.55;0.45;;;;;;;19.09;31.80;97555.06;10112028;29;20049;-79
2022/05/22 19:18:27;;;;;;;3.28;0.30;;;;;;;19.02;32.20;97550.59;10085737;29;20479;-77
2022/05/22 19:23:49;;;;;;;2.72;0.50;;;;;;;18.97;32.23;97551.84;10089954;29;20044;-81
2022/05/22 19:29:13;;;;;;;2.25;0.60;;;;;;;18.97;32.32;97559.63;10110498;29;20044;-79
2022/05/22 19:34:34;;;;;;;;;;;;;;;18.85;32.90;97551.47;10097571;29;20049;-84
2022/05/22 19:39:55;;;;;;;1.75;0.55;;;;;;;18.72;32.45;97561.66;10107057;29;19923;-78
2022/05/22 19:45:16;;;;;;;2.72;0.60;;;;;;;18.69;32.88;97562.25;10104706;29;20048;-77
2022/05/22 19:50:37;;;;;;;2.45;0.70;;;;;;;18.61;33.21;97551.34;10092897;29;20052;-78
2022/05/22 20:01:39;;;;;;;2.15;0.50;;;;;;;18.31;33.44;97557.44;10106364;29;20056;-77
2022/05/22 20:07:00;;;;;;;2.10;0.60;;;;;;;18.29;33.58;97545.34;10094986;29;20044;-83
2022/05/22 20:12:22;;;;;;;4.43;1.00;;;;;;;18.31;33.87;97551.06;10109170;29;20483;-75
2022/05/22 20:17:43;;;;;;;4.47;1.23;;;;;;;18.31;33.95;97548.25;10109138;29;20041;-75
2022/05/22 20:23:05;;;;;;;5.82;1.27;;;;;;;18.17;34.09;97544.94;10109882;29;20094;-76
2022/05/22 20:28:37;;;;;;;5.40;1.00;;;;;;;18.10;34.91;97531.97;10108095;29;20080;-75
2022/05/22 20:33:58;;;;;;;2.08;0.60;;;;;;;18.08;34.73;97517.78;10109334;29;20060;-74
2022/05/22 20:39:19;;;;;;;3.22;0.90;;;;;;;18.00;34.62;97526.69;10122007;29;20048;-74
2022/05/22 20:44:45;;;;;;;2.00;0.93;;;;;;;17.76;35.18;97520.94;10108608;29;20048;-75
2022/05/22 20:50:06;;;;;;;7.30;1.10;;;;;;;17.70;35.53;97527.06;10122431;29;20040;-75
2022/05/22 21:01:10;;;;;;;3.10;1.00;;;;;;;17.61;36.23;97527.41;10124893;29;20049;-74
2022/05/22 21:06:31;;;;;;;2.80;1.25;;;;;;;17.58;36.33;97520.97;10108935;29;20049;-75
2022/05/22 21:11:53;;;;;;;11.18;3.30;;;;;;;17.50;36.49;97514.28;10136156;29;20056;-75
2022/05/22 21:17:13;;;;;;;4.30;1.48;;;;;;;17.45;36.86;97513.41;10121426;29;20044;-74
2022/05/22 21:22:34;;;;;;;3.15;0.90;;;;;;;17.37;36.85;97521.56;10108525;29;20052;-75
2022/05/22 21:33:35;;;;;;;4.78;1.27;;;;;;;17.27;37.38;97513.44;10110383;29;20053;-75
2022/05/22 21:38:56;;;;;;;3.33;0.80;;;;;;;17.21;37.46;97509.69;10136333;29;20041;-75
2022/05/22 21:44:41;;;;;;;3.13;0.70;;;;;;;17.12;37.72;97526.31;10102746;29;20132;-75
2022/05/22 21:50:03;;;;;;;2.40;0.70;;;;;;;17.06;37.81;97522.50;10103707;29;20045;-75
2022/05/22 21:55:23;;;;;;;3.40;0.82;;;;;;;17.02;38.03;97528.00;10101760;29;20389;-75
2022/05/22 22:01:07;;;;;;;3.63;0.80;;;;;;;16.95;38.35;97524.22;10113891;29;20068;-74
2022/05/22 22:06:28;;;;;;;2.72;0.77;;;;;;;16.86;38.54;97525.28;10130510;29;20041;-74
2022/05/22 22:11:49;;;;;;;2.45;0.73;;;;;;;16.79;38.64;97535.59;10126885;29;20052;-74
2022/05/22 22:17:13;;;;;;;3.70;0.88;;;;;;;16.74;38.89;97521.97;10126440;29;20049;-74
2022/05/22 22:22:33;;;;;;;4.32;0.80;;;;;;;16.62;39.01;97521.47;10114296;29;20059;-74
2022/05/22 22:27:54;;;;;;;2.33;0.90;;;;;;;16.54;39.45;97528.22;10100457;29;20403;-75
2022/05/22 22:33:16;;;;;;;4.57;0.80;;;;;;;16.54;39.42;97527.50;10113522;29;20052;-75
2022/05/22 22:38:37;;;;;;;3.13;0.75;;;;;;;16.55;39.44;97521.22;10112930;29;20040;-76
2022/05/22 22:43:58;;;;;;;4.25;0.77;;;;;;;16.50;39.80;97530.13;10112424;29;20049;-75
2022/05/22 22:49:18;;;;;;;3.58;0.75;;;;;;;16.43;39.86;97522.81;10099522;29;20048;-75
2022/05/22 23:00:19;;;;;;;3.08;0.80;;;;;;;16.28;40.63;97521.50;10097133;29;20074;-75
2022/05/22 23:05:39;;;;;;;3.10;0.82;;;;;;;16.18;40.35;97527.44;10108466;29;20048;-75
2022/05/22 23:11:00;;;;;;;3.35;1.20;;;;;;;16.11;40.93;97516.53;10138207;29;20071;-76
2022/05/22 23:16:21;;;;;;;2.55;0.60;;;;;;;16.02;40.85;97523.94;10137340;29;20041;-75
2022/05/22 23:21:42;;;;;;;3.17;0.55;;;;;;;16.03;40.98;97514.13;10123959;29;20483;-76
2022/05/22 23:27:04;;;;;;;2.95;0.70;;;;;;;16.06;41.04;97512.84;10133441;29;20041;-75
2022/05/22 23:32:25;;;;;;;4.10;0.90;;;;;;;16.02;41.14;97504.97;10108951;29;20044;-75
2022/05/22 23:37:48;;;;;;;4.55;0.73;;;;;;;15.87;41.31;97507.81;10099516;29;20380;-76
2022/05/22 23:43:10;;;;;;;4.80;0.87;;;;;;;15.77;41.58;97501.72;10102451;29;20045;-77
2022/05/22 23:48:31;;;;;;;5.57;0.85;;;;;;;15.75;41.84;97502.38;10097401;29;20045;-76
2022/05/22 23:53:52;;;;;;;2.97;0.60;;;;;;;15.76;41.83;97501.00;10097165;29;20044;-76
2022/05/22 23:59:13;;;;;;;3.63;0.90;;;;;;;15.78;41.92;97503.19;10122495;29;20052;-74
